createdAt,value
2018-05-07T00:02:56.060Z,4.33
2018-05-07T00:05:59.486Z,4.10
2018-05-07T00:09:02.697Z,4.67
2018-05-07T00:12:06.041Z,4.70
2018-05-07T00:15:09.341Z,4.13
2018-05-07T00:18:12.957Z,4.27
2018-05-07T00:21:17.029Z,4.63
2018-05-07T00:24:20.363Z,4.53
2018-05-07T00:27:24.439Z,4.60
2018-05-07T00:30:27.749Z,5.00
2018-05-07T00:33:31.080Z,4.40
2018-05-07T00:36:35.150Z,4.23
2018-05-07T00:39:38.486Z,4.93
2018-05-07T00:42:42.549Z,4.37
2018-05-07T00:45:45.870Z,4.10
2018-05-07T00:48:49.182Z,4.80
2018-05-07T00:51:52.504Z,4.87
2018-05-07T00:55:13.482Z,5.23
2018-05-07T00:58:16.810Z,5.10
2018-05-07T01:01:20.892Z,4.70
2018-05-07T01:04:24.197Z,4.20
2018-05-07T01:07:27.526Z,4.87
2018-05-07T01:10:30.820Z,4.67
2018-05-07T01:13:34.137Z,4.80
2018-05-07T01:16:37.432Z,4.53
2018-05-07T01:19:40.758Z,4.80
2018-05-07T01:22:44.052Z,4.43
2018-05-07T01:25:47.384Z,4.90
2018-05-07T01:28:51.445Z,4.60
2018-05-07T01:31:54.787Z,4.77
2018-05-07T01:34:58.094Z,4.97
2018-05-07T01:38:02.195Z,5.43
2018-05-07T01:41:05.505Z,5.27
2018-05-07T01:44:08.848Z,4.30
2018-05-07T01:47:12.153Z,4.90
2018-05-07T01:50:15.481Z,4.77
2018-05-07T01:53:18.781Z,4.97
2018-05-07T01:56:22.101Z,5.43
2018-05-07T01:59:25.397Z,5.57
2018-05-07T02:02:28.708Z,5.07
2018-05-07T02:05:32.022Z,5.23
2018-05-07T02:08:35.329Z,5.00
2018-05-07T02:11:38.634Z,5.23
2018-05-07T02:14:41.957Z,5.20
2018-05-07T02:17:45.253Z,5.23
2018-05-07T02:20:48.566Z,5.07
2018-05-07T02:23:52.646Z,5.33
2018-05-07T02:26:55.973Z,5.50
2018-05-07T02:30:00.042Z,5.67
2018-05-07T02:33:03.366Z,6.17
2018-05-07T02:36:06.667Z,5.73
2018-05-07T02:39:09.972Z,5.37
2018-05-07T02:42:14.048Z,5.43
2018-05-07T02:45:17.377Z,5.87
2018-05-07T02:48:20.669Z,6.03
2018-05-07T02:51:24.078Z,5.57
2018-05-07T02:54:28.141Z,6.00
2018-05-07T02:57:31.470Z,5.47
2018-05-07T03:00:34.778Z,5.23
2018-05-07T03:03:38.871Z,5.23
2018-05-07T03:06:42.178Z,5.63
2018-05-07T03:09:45.485Z,5.00
2018-05-07T03:12:49.585Z,4.87
2018-05-07T03:15:52.901Z,5.23
2018-05-07T03:18:56.989Z,5.80
2018-05-07T03:22:00.288Z,5.40
2018-05-07T03:25:03.608Z,5.40
2018-05-07T03:28:07.673Z,5.77
2018-05-07T03:31:10.985Z,5.67
2018-05-07T03:34:14.285Z,5.90
2018-05-07T03:37:17.601Z,6.37
2018-05-07T03:40:20.897Z,6.07
2018-05-07T03:43:24.228Z,5.70
2018-05-07T03:46:27.529Z,5.63
2018-05-07T03:49:30.853Z,6.17
2018-05-07T03:52:34.158Z,5.20
2018-05-07T03:55:37.477Z,5.43
2018-05-07T03:58:40.796Z,5.10
2018-05-07T04:01:44.873Z,5.63
2018-05-07T04:04:48.224Z,6.63
2018-05-07T04:07:51.527Z,6.50
2018-05-07T04:10:54.866Z,6.43
2018-05-07T04:13:58.169Z,5.67
2018-05-07T04:17:19.382Z,5.50
2018-05-07T04:20:38.240Z,6.57
2018-05-07T04:23:59.373Z,6.10
2018-05-07T04:27:02.689Z,5.83
2018-05-07T04:30:06.013Z,6.03
2018-05-07T04:33:09.324Z,5.43
2018-05-07T04:36:12.642Z,6.50
2018-05-07T04:39:15.958Z,5.90
2018-05-07T04:42:20.057Z,5.90
2018-05-07T04:45:23.373Z,5.67
2018-05-07T04:48:27.446Z,5.57
2018-05-07T04:51:30.778Z,6.00
2018-05-07T04:54:34.848Z,5.70
2018-05-07T04:57:38.169Z,5.43
2018-05-07T05:00:41.509Z,5.40
2018-05-07T05:03:44.828Z,5.27
2018-05-07T05:06:48.135Z,5.17
2018-05-07T05:09:51.453Z,5.70
2018-05-07T05:12:56.265Z,4.57
2018-05-07T05:15:59.573Z,5.43
2018-05-07T05:19:02.888Z,5.00
2018-05-07T05:22:06.232Z,5.00
2018-05-07T05:25:09.537Z,5.07
2018-05-07T05:28:13.230Z,5.67
2018-05-07T05:31:16.531Z,5.43
2018-05-07T05:34:19.866Z,5.40
2018-05-07T05:37:23.246Z,4.47
2018-05-07T05:40:26.514Z,4.97
2018-05-07T05:43:29.844Z,4.87
2018-05-07T05:46:33.151Z,4.90
2018-05-07T05:49:36.450Z,4.73
2018-05-07T05:52:39.764Z,4.77
2018-05-07T05:55:43.090Z,5.57
2018-05-07T05:58:46.417Z,4.50
2018-05-07T06:01:49.729Z,5.10
2018-05-07T06:04:53.069Z,5.57
2018-05-07T06:07:57.137Z,4.23
2018-05-07T06:11:00.456Z,4.50
2018-05-07T06:14:03.775Z,4.90
2018-05-07T06:17:07.873Z,4.33
2018-05-07T06:20:11.173Z,4.30
2018-05-07T06:23:14.500Z,4.30
2018-05-07T06:26:17.805Z,4.40
2018-05-07T06:29:21.143Z,4.50
2018-05-07T06:32:24.448Z,3.40
2018-05-07T06:35:27.781Z,3.67
2018-05-07T06:38:31.092Z,3.97
2018-05-07T06:41:34.433Z,3.70
2018-05-07T06:44:37.758Z,3.03
2018-05-07T06:47:41.846Z,3.27
2018-05-07T06:50:45.171Z,2.93
2018-05-07T06:53:49.241Z,3.33
2018-05-07T06:56:52.582Z,3.67
2018-05-07T06:59:56.660Z,3.60
2018-05-07T07:03:00.002Z,3.40
2018-05-07T07:06:03.320Z,3.33
2018-05-07T07:09:06.665Z,3.40
2018-05-07T07:12:09.972Z,3.40
2018-05-07T07:15:13.310Z,3.20
2018-05-07T07:18:16.613Z,3.00
2018-05-07T07:21:19.936Z,3.13
2018-05-07T07:24:23.237Z,3.57
2018-05-07T07:27:26.559Z,3.17
2018-05-07T07:30:30.633Z,3.33
2018-05-07T07:33:33.962Z,3.23
2018-05-07T07:36:37.263Z,3.23
2018-05-07T07:39:41.356Z,2.93
2018-05-07T07:42:44.664Z,3.27
2018-05-07T07:45:47.986Z,2.80
2018-05-07T07:48:52.054Z,2.90
2018-05-07T07:51:55.386Z,3.10
2018-05-07T07:54:59.465Z,3.60
2018-05-07T07:58:02.802Z,3.40
2018-05-07T08:01:06.865Z,3.33
2018-05-07T08:04:10.200Z,3.20
2018-05-07T08:07:13.501Z,2.77
2018-05-07T08:10:16.840Z,3.07
2018-05-07T08:13:20.148Z,2.90
2018-05-07T08:16:23.465Z,2.47
2018-05-07T08:19:26.766Z,3.10
2018-05-07T08:22:30.205Z,2.57
2018-05-07T08:25:33.514Z,2.40
2018-05-07T08:28:36.829Z,2.97
2018-05-07T08:31:40.157Z,2.77
2018-05-07T08:34:43.466Z,2.77
2018-05-07T08:37:46.790Z,2.90
2018-05-07T08:40:50.096Z,2.70
2018-05-07T08:43:53.431Z,2.27
2018-05-07T08:46:56.734Z,2.47
2018-05-07T08:50:00.068Z,2.93
2018-05-07T08:53:04.186Z,3.07
2018-05-07T08:56:07.490Z,2.50
2018-05-07T08:59:10.809Z,2.47
2018-05-07T09:02:14.183Z,2.57
2018-05-07T09:05:17.482Z,2.80
2018-05-07T09:08:20.793Z,3.70
2018-05-07T09:11:24.108Z,2.70
2018-05-07T09:14:27.421Z,3.00
2018-05-07T09:17:30.734Z,3.30
2018-05-07T09:20:34.058Z,3.30
2018-05-07T09:23:37.372Z,2.97
2018-05-07T09:26:40.692Z,2.80
2018-05-07T09:29:43.990Z,2.50
2018-05-07T09:32:47.315Z,2.90
2018-05-07T09:35:50.622Z,3.03
2018-05-07T09:38:53.984Z,2.47
2018-05-07T09:41:57.306Z,2.83
2018-05-07T09:45:00.624Z,3.13
2018-05-07T09:48:04.719Z,2.60
2018-05-07T09:51:08.028Z,2.37
2018-05-07T09:54:12.121Z,2.37
2018-05-07T09:57:15.424Z,2.03
2018-05-07T10:00:18.745Z,1.83
2018-05-07T10:03:22.832Z,2.10
2018-05-07T10:06:26.133Z,2.17
2018-05-07T10:09:29.475Z,2.30
2018-05-07T10:12:32.789Z,2.00
2018-05-07T10:15:36.110Z,2.20
2018-05-07T10:18:39.445Z,2.00
2018-05-07T10:21:43.513Z,2.30
2018-05-07T10:24:46.847Z,2.50
2018-05-07T10:27:50.148Z,2.60
2018-05-07T10:30:54.236Z,2.73
2018-05-07T10:33:57.540Z,2.40
2018-05-07T10:37:00.887Z,2.43
2018-05-07T10:40:04.197Z,2.40
2018-05-07T10:43:07.517Z,2.20
2018-05-07T10:46:10.829Z,2.07
2018-05-07T10:49:14.151Z,2.17
2018-05-07T10:52:17.457Z,1.90
2018-05-07T10:55:20.777Z,2.43
2018-05-07T10:58:24.079Z,2.00
2018-05-07T11:01:27.418Z,1.97
2018-05-07T11:04:31.499Z,3.10
2018-05-07T11:07:34.825Z,2.80
2018-05-07T11:10:38.894Z,2.40
2018-05-07T11:13:42.222Z,2.60
2018-05-07T11:16:45.525Z,2.87
2018-05-07T11:19:48.886Z,2.63
2018-05-07T11:22:52.177Z,2.10
2018-05-07T11:25:55.501Z,2.13
2018-05-07T11:28:58.808Z,2.13
2018-05-07T11:32:02.118Z,2.30
2018-05-07T11:35:06.190Z,2.10
2018-05-07T11:38:09.502Z,2.33
2018-05-07T11:41:12.838Z,2.80
2018-05-07T11:44:16.150Z,2.53
2018-05-07T11:47:19.522Z,2.60
2018-05-07T11:50:22.778Z,2.50
2018-05-07T11:53:26.097Z,2.90
2018-05-07T11:56:29.406Z,2.53
2018-05-07T11:59:33.508Z,2.57
2018-05-07T12:02:36.825Z,2.57
2018-05-07T12:05:40.146Z,2.90
2018-05-07T12:08:43.441Z,3.07
2018-05-07T12:11:46.765Z,3.03
2018-05-07T12:14:50.064Z,3.00
2018-05-07T12:17:53.385Z,3.40
2018-05-07T12:20:56.688Z,2.70
2018-05-07T12:24:00.015Z,2.77
2018-05-07T12:27:03.329Z,2.50
2018-05-07T12:30:06.653Z,2.47
2018-05-07T12:33:09.956Z,2.30
2018-05-07T12:36:13.274Z,2.00
2018-05-07T12:39:16.573Z,2.37
2018-05-07T12:42:19.898Z,2.10
2018-05-07T12:45:23.208Z,2.20
2018-05-07T12:48:26.525Z,2.00
2018-05-07T12:51:29.861Z,2.00
2018-05-07T12:54:33.928Z,2.20
2018-05-07T12:57:37.242Z,2.50
2018-05-07T13:00:40.553Z,2.00
2018-05-07T13:03:43.883Z,2.03
2018-05-07T13:06:47.951Z,2.03
2018-05-07T13:09:51.261Z,2.00
2018-05-07T13:12:54.663Z,1.97
2018-05-07T13:15:57.900Z,1.93
2018-05-07T13:19:01.217Z,2.47
2018-05-07T13:22:04.524Z,3.63
2018-05-07T13:25:07.829Z,2.90
2018-05-07T13:28:11.972Z,3.30
2018-05-07T13:31:15.301Z,3.20
2018-05-07T13:34:18.634Z,2.80
2018-05-07T13:37:21.942Z,2.80
2018-05-07T13:40:28.463Z,2.67
2018-05-07T13:43:36.407Z,2.80
2018-05-07T13:46:40.857Z,2.30
2018-05-07T13:49:44.483Z,2.60
2018-05-07T13:52:47.797Z,3.30
2018-05-07T13:55:51.121Z,2.53
2018-05-07T13:58:54.430Z,3.17
2018-05-07T14:01:57.750Z,2.47
2018-05-07T14:05:01.058Z,3.03
2018-05-07T14:08:05.129Z,3.30
2018-05-07T14:11:08.456Z,3.20
2018-05-07T14:14:11.757Z,3.30
2018-05-07T14:17:15.849Z,3.23
2018-05-07T14:20:19.153Z,3.70
2018-05-07T14:23:22.473Z,3.53
2018-05-07T14:26:26.546Z,3.20
2018-05-07T14:29:29.881Z,3.40
2018-05-07T14:32:33.941Z,3.50
2018-05-07T14:35:37.264Z,3.50
2018-05-07T14:38:40.661Z,3.27
2018-05-07T14:41:44.693Z,3.17
2018-05-07T14:44:48.001Z,3.53
2018-05-07T14:47:52.114Z,3.30
2018-05-07T14:50:57.325Z,3.60
2018-05-07T14:54:00.641Z,2.90
2018-05-07T14:57:03.937Z,3.10
2018-05-07T15:00:07.264Z,2.87
2018-05-07T15:03:10.581Z,2.10
2018-05-07T15:06:13.889Z,2.73
2018-05-07T15:09:17.205Z,2.80
2018-05-07T15:12:20.523Z,2.63
2018-05-07T15:15:23.846Z,2.30
2018-05-07T15:18:27.152Z,2.40
2018-05-07T15:21:30.469Z,2.50
2018-05-07T15:24:47.379Z,2.63
2018-05-07T15:27:50.694Z,3.00
2018-05-07T15:30:53.997Z,2.57
2018-05-07T15:33:57.320Z,2.77
2018-05-07T15:37:00.645Z,2.80
2018-05-07T15:40:03.958Z,2.30
2018-05-07T15:43:07.289Z,2.70
2018-05-07T15:46:10.597Z,2.60
2018-05-07T15:49:13.931Z,2.30
2018-05-07T15:52:17.241Z,2.03
2018-05-07T15:55:20.617Z,1.90
2018-05-07T15:58:23.893Z,2.07
2018-05-07T16:01:27.210Z,2.00
2018-05-07T16:04:30.509Z,2.50
2018-05-07T16:07:33.826Z,2.27
2018-05-07T16:10:37.142Z,1.90
2018-05-07T16:13:40.461Z,1.80
2018-05-07T16:16:43.764Z,2.17
2018-05-07T16:19:47.198Z,2.23
2018-05-07T16:22:50.517Z,2.87
2018-05-07T16:25:53.931Z,2.70
2018-05-07T16:29:04.906Z,3.00
2018-05-07T16:35:16.291Z,2.70
2018-05-07T16:38:22.231Z,2.80
2018-05-07T16:44:56.589Z,2.87
2018-05-07T16:48:17.691Z,2.80
2018-05-07T16:51:21.785Z,2.90
2018-05-07T16:54:25.417Z,2.90
2018-05-07T16:57:30.250Z,2.90
2018-05-07T17:00:33.818Z,2.93
2018-05-07T17:03:39.641Z,3.33
2018-05-07T17:06:43.110Z,4.00
2018-05-07T17:09:50.492Z,3.40
2018-05-07T17:12:54.959Z,3.67
2018-05-07T17:15:58.530Z,3.20
2018-05-07T17:19:02.015Z,3.20
2018-05-07T17:22:10.710Z,3.10
2018-05-07T17:25:15.529Z,3.30
2018-05-07T17:28:19.635Z,3.10
2018-05-07T17:31:23.099Z,3.40
2018-05-07T17:34:26.434Z,3.53
2018-05-07T17:37:29.794Z,3.00
2018-05-07T17:40:33.108Z,3.50
2018-05-07T17:43:36.445Z,3.10
2018-05-07T17:46:58.356Z,2.67
2018-05-07T17:50:01.670Z,3.20
2018-05-07T17:53:04.981Z,3.73
2018-05-07T17:56:09.048Z,3.70
2018-05-07T17:59:12.380Z,3.27
2018-05-07T18:02:16.457Z,3.50
2018-05-07T18:05:19.781Z,3.50
2018-05-07T18:08:23.081Z,3.27
2018-05-07T18:11:26.405Z,3.60
2018-05-07T18:14:30.477Z,3.80
2018-05-07T18:17:33.790Z,4.13
2018-05-07T18:20:37.106Z,3.73
2018-05-07T18:23:40.406Z,4.27
2018-05-07T18:26:43.724Z,4.20
2018-05-07T18:29:47.026Z,4.13
2018-05-07T18:32:50.340Z,4.10
2018-05-07T18:35:53.642Z,3.70
2018-05-07T18:38:56.952Z,3.73
2018-05-07T18:42:00.281Z,3.63
2018-05-07T18:45:03.586Z,3.97
2018-05-07T18:48:06.894Z,3.87
2018-05-07T18:51:10.193Z,4.00
2018-05-07T18:54:13.514Z,4.00
2018-05-07T18:57:16.813Z,3.53
2018-05-07T19:00:20.141Z,3.73
2018-05-07T19:03:23.449Z,3.63
2018-05-07T19:06:27.545Z,3.50
2018-05-07T19:09:30.845Z,3.50
2018-05-07T19:12:34.786Z,3.90
2018-05-07T19:15:41.643Z,3.60
2018-05-07T19:18:49.191Z,3.60
2018-05-07T19:22:06.959Z,4.53
2018-05-07T19:25:10.395Z,3.67
2018-05-07T19:28:13.707Z,3.83
2018-05-07T19:31:17.019Z,3.53
2018-05-07T19:34:20.323Z,3.87
2018-05-07T19:37:23.640Z,3.63
2018-05-07T19:40:26.944Z,3.50
2018-05-07T19:43:30.269Z,3.33
2018-05-07T19:46:34.332Z,3.80
2018-05-07T19:49:37.637Z,3.20
2018-05-07T19:52:40.972Z,3.50
2018-05-07T19:55:45.044Z,3.57
2018-05-07T19:58:48.392Z,4.07
2018-05-07T20:01:51.692Z,3.67
2018-05-07T20:04:55.017Z,3.40
2018-05-07T20:07:58.316Z,4.07
2018-05-07T20:11:01.636Z,3.83
2018-05-07T20:14:04.972Z,3.83
2018-05-07T20:17:09.041Z,3.77
2018-05-07T20:20:12.376Z,4.00
2018-05-07T20:23:16.442Z,3.70
2018-05-07T20:26:19.761Z,3.00
2018-05-07T20:29:23.060Z,3.10
2018-05-07T20:32:26.380Z,3.83
2018-05-07T20:35:30.454Z,3.27
2018-05-07T20:38:33.766Z,2.90
2018-05-07T20:41:37.065Z,3.00
2018-05-07T20:44:40.395Z,3.43
2018-05-07T20:47:43.724Z,3.10
2018-05-07T20:50:47.132Z,2.77
2018-05-07T20:53:50.438Z,3.00
2018-05-07T20:56:53.765Z,2.70
2018-05-07T20:59:57.833Z,2.77
2018-05-07T21:03:01.149Z,2.70
2018-05-07T21:06:04.457Z,2.80
2018-05-07T21:09:07.782Z,3.27
2018-05-07T21:12:11.849Z,2.77
2018-05-07T21:15:15.181Z,2.33
2018-05-07T21:18:19.242Z,3.00
2018-05-07T21:21:22.656Z,2.43
2018-05-07T21:24:26.660Z,2.83
2018-05-07T21:27:29.988Z,2.30
2018-05-07T21:30:33.289Z,2.40
2018-05-07T21:33:36.622Z,2.10
2018-05-07T21:36:39.921Z,2.03
2018-05-07T21:39:43.244Z,2.30
2018-05-07T21:42:46.545Z,2.27
2018-05-07T21:45:49.862Z,2.33
2018-05-07T21:48:53.164Z,2.17
2018-05-07T21:51:56.483Z,2.67
2018-05-07T21:55:00.548Z,2.70
2018-05-07T21:58:03.876Z,2.03
2018-05-07T22:01:07.182Z,2.80
2018-05-07T22:04:11.270Z,3.10
2018-05-07T22:07:14.576Z,2.13
2018-05-07T22:10:18.065Z,3.20
2018-05-07T22:13:21.365Z,2.97
2018-05-07T22:16:24.701Z,2.37
2018-05-07T22:19:28.002Z,2.90
2018-05-07T22:22:31.313Z,2.60
2018-05-07T22:25:34.641Z,3.00
2018-05-07T22:28:37.942Z,3.00
2018-05-07T22:31:41.264Z,2.73
2018-05-07T22:34:44.561Z,2.43
2018-05-07T22:37:48.644Z,2.70
2018-05-07T22:40:51.941Z,2.83
2018-05-07T22:43:55.261Z,2.70
2018-05-07T22:46:58.561Z,3.27
2018-05-07T22:50:01.881Z,3.07
2018-05-07T22:53:05.181Z,2.80
2018-05-07T22:56:08.492Z,2.80
2018-05-07T22:59:11.785Z,3.33
2018-05-07T23:02:15.106Z,3.37
2018-05-07T23:05:18.405Z,3.03
2018-05-07T23:08:21.709Z,3.27
2018-05-07T23:11:25.025Z,3.57
2018-05-07T23:14:28.328Z,2.83
2018-05-07T23:17:31.653Z,3.00
2018-05-07T23:20:34.952Z,3.47
2018-05-07T23:23:38.284Z,3.33
2018-05-07T23:26:41.586Z,3.07
2018-05-07T23:29:44.904Z,3.40
2018-05-07T23:32:48.201Z,2.90
2018-05-07T23:35:51.521Z,2.97
2018-05-07T23:38:55.591Z,3.10
2018-05-07T23:41:58.932Z,3.20
2018-05-07T23:45:02.245Z,2.97
2018-05-07T23:48:05.569Z,3.33
2018-05-07T23:51:08.869Z,3.40
2018-05-07T23:54:12.197Z,3.30
2018-05-07T23:57:15.501Z,3.30
